sensor_id;sensor_type;location;lat;lon;timestamp;temperature;humidity
13652;DHT22;6899;51.546;6.912;2022-09-09T00:01:44;14.10;99.90
13652;DHT22;6899;51.546;6.912;2022-09-09T00:04:23;14.10;99.90
13652;DHT22;6899;51.546;6.912;2022-09-09T00:07:03;14.20;99.90
13652;DHT22;6899;51.546;6.912;2022-09-09T00:09:35;14.10;99.90
13652;DHT22;6899;51.546;6.912;2022-09-09T00:12:11;14.10;99.90
13652;DHT22;6899;51.546;6.912;2022-09-09T00:14:45;14.20;99.90
13652;DHT22;6899;51.546;6.912;2022-09-09T00:17:23;14.30;99.90
13652;DHT22;6899;51.546;6.912;2022-09-09T00:19:56;14.30;99.90
13652;DHT22;6899;51.546;6.912;2022-09-09T00:22:29;14.30;99.90
13652;DHT22;6899;51.546;6.912;2022-09-09T00:25:02;14.30;99.90
13652;DHT22;6899;51.546;6.912;2022-09-09T00:27:32;14.30;99.90
13652;DHT22;6899;51.546;6.912;2022-09-09T00:30:13;14.20;99.90
13652;DHT22;6899;51.546;6.912;2022-09-09T00:32:41;14.10;99.90
13652;DHT22;6899;51.546;6.912;2022-09-09T00:35:17;14.00;99.90
13652;DHT22;6899;51.546;6.912;2022-09-09T00:37:46;14.00;99.90
13652;DHT22;6899;51.546;6.912;2022-09-09T00:40:22;13.90;99.90
13652;DHT22;6899;51.546;6.912;2022-09-09T00:42:54;13.70;99.90
13652;DHT22;6899;51.546;6.912;2022-09-09T00:45:43;13.70;99.90
13652;DHT22;6899;51.546;6.912;2022-09-09T00:48:18;13.60;99.90
13652;DHT22;6899;51.546;6.912;2022-09-09T00:50:52;13.60;99.90
13652;DHT22;6899;51.546;6.912;2022-09-09T00:53:30;13.60;99.90
13652;DHT22;6899;51.546;6.912;2022-09-09T00:56:09;13.70;99.90
13652;DHT22;6899;51.546;6.912;2022-09-09T00:58:38;13.60;99.90
13652;DHT22;6899;51.546;6.912;2022-09-09T01:01:08;13.70;99.90
13652;DHT22;6899;51.546;6.912;2022-09-09T01:03:38;13.90;99.90
13652;DHT22;6899;51.546;6.912;2022-09-09T01:06:15;14.10;99.90
13652;DHT22;6899;51.546;6.912;2022-09-09T01:08:59;14.10;99.90
13652;DHT22;6899;51.546;6.912;2022-09-09T01:11:33;14.10;99.90
13652;DHT22;6899;51.546;6.912;2022-09-09T01:14:11;14.20;99.90
13652;DHT22;6899;51.546;6.912;2022-09-09T01:16:41;14.20;99.90
13652;DHT22;6899;51.546;6.912;2022-09-09T01:19:10;14.20;99.90
13652;DHT22;6899;51.546;6.912;2022-09-09T01:21:52;14.10;99.90
13652;DHT22;6899;51.546;6.912;2022-09-09T01:24:26;14.10;99.90
13652;DHT22;6899;51.546;6.912;2022-09-09T01:26:57;14.00;99.90
13652;DHT22;6899;51.546;6.912;2022-09-09T01:29:25;13.90;99.90
13652;DHT22;6899;51.546;6.912;2022-09-09T01:31:55;13.80;99.90
13652;DHT22;6899;51.546;6.912;2022-09-09T01:34:24;13.70;99.90
13652;DHT22;6899;51.546;6.912;2022-09-09T01:36:57;13.60;99.90
13652;DHT22;6899;51.546;6.912;2022-09-09T01:39:25;13.50;99.90
13652;DHT22;6899;51.546;6.912;2022-09-09T01:41:53;13.40;99.90
13652;DHT22;6899;51.546;6.912;2022-09-09T01:44:24;13.40;99.90
13652;DHT22;6899;51.546;6.912;2022-09-09T01:46:51;13.50;99.90
13652;DHT22;6899;51.546;6.912;2022-09-09T01:49:18;13.40;99.90
13652;DHT22;6899;51.546;6.912;2022-09-09T01:51:46;13.40;99.90
13652;DHT22;6899;51.546;6.912;2022-09-09T01:54:15;13.40;99.90
13652;DHT22;6899;51.546;6.912;2022-09-09T01:56:50;13.40;99.90
13652;DHT22;6899;51.546;6.912;2022-09-09T01:59:38;13.40;99.90
13652;DHT22;6899;51.546;6.912;2022-09-09T02:02:10;13.40;99.90
13652;DHT22;6899;51.546;6.912;2022-09-09T02:04:41;13.40;99.90
13652;DHT22;6899;51.546;6.912;2022-09-09T02:07:22;13.30;99.90
13652;DHT22;6899;51.546;6.912;2022-09-09T02:09:58;13.30;99.90
13652;DHT22;6899;51.546;6.912;2022-09-09T02:12:28;13.30;99.90
13652;DHT22;6899;51.546;6.912;2022-09-09T02:15:03;13.40;99.90
13652;DHT22;6899;51.546;6.912;2022-09-09T02:17:36;13.40;99.90
13652;DHT22;6899;51.546;6.912;2022-09-09T02:20:07;13.60;99.90
13652;DHT22;6899;51.546;6.912;2022-09-09T02:22:37;13.70;99.90
13652;DHT22;6899;51.546;6.912;2022-09-09T02:25:08;13.80;99.90
13652;DHT22;6899;51.546;6.912;2022-09-09T02:27:37;13.80;99.90
13652;DHT22;6899;51.546;6.912;2022-09-09T02:30:07;13.90;99.90
13652;DHT22;6899;51.546;6.912;2022-09-09T02:32:35;13.80;99.90
13652;DHT22;6899;51.546;6.912;2022-09-09T02:35:06;13.80;99.90
13652;DHT22;6899;51.546;6.912;2022-09-09T02:37:36;13.80;99.90
13652;DHT22;6899;51.546;6.912;2022-09-09T02:40:05;13.80;99.90
13652;DHT22;6899;51.546;6.912;2022-09-09T02:42:34;13.90;99.90
13652;DHT22;6899;51.546;6.912;2022-09-09T02:45:07;14.00;99.90
13652;DHT22;6899;51.546;6.912;2022-09-09T02:47:35;14.00;99.90
13652;DHT22;6899;51.546;6.912;2022-09-09T02:50:12;14.10;99.90
13652;DHT22;6899;51.546;6.912;2022-09-09T02:52:47;14.10;99.90
13652;DHT22;6899;51.546;6.912;2022-09-09T02:55:23;14.20;99.90
13652;DHT22;6899;51.546;6.912;2022-09-09T02:57:52;14.10;99.90
13652;DHT22;6899;51.546;6.912;2022-09-09T03:00:25;14.20;99.90
13652;DHT22;6899;51.546;6.912;2022-09-09T03:02:53;14.20;99.90
13652;DHT22;6899;51.546;6.912;2022-09-09T03:05:21;14.20;99.90
13652;DHT22;6899;51.546;6.912;2022-09-09T03:07:47;14.20;99.90
13652;DHT22;6899;51.546;6.912;2022-09-09T03:10:16;14.10;99.90
13652;DHT22;6899;51.546;6.912;2022-09-09T03:12:43;13.90;99.90
13652;DHT22;6899;51.546;6.912;2022-09-09T03:15:10;13.80;99.90
13652;DHT22;6899;51.546;6.912;2022-09-09T03:17:38;13.80;99.90
13652;DHT22;6899;51.546;6.912;2022-09-09T03:20:06;13.70;99.90
13652;DHT22;6899;51.546;6.912;2022-09-09T03:22:34;13.60;99.90
13652;DHT22;6899;51.546;6.912;2022-09-09T03:25:01;13.50;99.90
13652;DHT22;6899;51.546;6.912;2022-09-09T03:27:29;13.50;99.90
13652;DHT22;6899;51.546;6.912;2022-09-09T03:29:56;13.40;99.90
13652;DHT22;6899;51.546;6.912;2022-09-09T03:32:23;13.40;99.90
13652;DHT22;6899;51.546;6.912;2022-09-09T03:34:53;13.40;99.90
13652;DHT22;6899;51.546;6.912;2022-09-09T03:37:20;13.30;99.90
13652;DHT22;6899;51.546;6.912;2022-09-09T03:39:48;13.20;99.90
13652;DHT22;6899;51.546;6.912;2022-09-09T03:42:15;13.30;99.90
13652;DHT22;6899;51.546;6.912;2022-09-09T03:44:44;13.30;99.90
13652;DHT22;6899;51.546;6.912;2022-09-09T03:47:16;13.30;99.90
13652;DHT22;6899;51.546;6.912;2022-09-09T03:49:43;13.40;99.90
13652;DHT22;6899;51.546;6.912;2022-09-09T03:52:11;13.50;99.90
13652;DHT22;6899;51.546;6.912;2022-09-09T03:54:38;13.50;99.90
13652;DHT22;6899;51.546;6.912;2022-09-09T03:57:08;13.60;99.90
13652;DHT22;6899;51.546;6.912;2022-09-09T03:59:35;13.50;99.90
13652;DHT22;6899;51.546;6.912;2022-09-09T04:02:02;13.50;99.90
13652;DHT22;6899;51.546;6.912;2022-09-09T04:04:29;13.50;99.90
13652;DHT22;6899;51.546;6.912;2022-09-09T04:06:55;13.40;99.90
13652;DHT22;6899;51.546;6.912;2022-09-09T04:09:24;13.50;99.90
13652;DHT22;6899;51.546;6.912;2022-09-09T04:11:50;13.50;99.90
13652;DHT22;6899;51.546;6.912;2022-09-09T04:14:18;13.40;99.90
13652;DHT22;6899;51.546;6.912;2022-09-09T04:16:45;13.40;99.90
13652;DHT22;6899;51.546;6.912;2022-09-09T04:19:13;13.30;99.90
13652;DHT22;6899;51.546;6.912;2022-09-09T04:21:40;13.40;99.90
13652;DHT22;6899;51.546;6.912;2022-09-09T04:24:08;13.30;99.90
13652;DHT22;6899;51.546;6.912;2022-09-09T04:26:37;13.40;99.90
13652;DHT22;6899;51.546;6.912;2022-09-09T04:29:04;13.40;99.90
13652;DHT22;6899;51.546;6.912;2022-09-09T04:31:33;13.50;99.90
13652;DHT22;6899;51.546;6.912;2022-09-09T04:34:01;13.60;99.90
13652;DHT22;6899;51.546;6.912;2022-09-09T04:36:31;13.60;99.90
13652;DHT22;6899;51.546;6.912;2022-09-09T04:38:58;13.70;99.90
13652;DHT22;6899;51.546;6.912;2022-09-09T04:41:25;13.70;99.90
13652;DHT22;6899;51.546;6.912;2022-09-09T04:43:53;13.80;99.90
13652;DHT22;6899;51.546;6.912;2022-09-09T04:46:20;13.80;99.90
13652;DHT22;6899;51.546;6.912;2022-09-09T04:48:48;13.90;99.90
13652;DHT22;6899;51.546;6.912;2022-09-09T04:51:16;13.90;99.90
13652;DHT22;6899;51.546;6.912;2022-09-09T04:53:43;14.00;99.90
13652;DHT22;6899;51.546;6.912;2022-09-09T04:56:13;14.10;99.90
13652;DHT22;6899;51.546;6.912;2022-09-09T04:58:40;14.10;99.90
13652;DHT22;6899;51.546;6.912;2022-09-09T05:01:11;14.10;99.90
13652;DHT22;6899;51.546;6.912;2022-09-09T05:03:38;14.20;99.90
13652;DHT22;6899;51.546;6.912;2022-09-09T05:06:06;14.20;99.90
13652;DHT22;6899;51.546;6.912;2022-09-09T05:08:34;14.30;99.90
13652;DHT22;6899;51.546;6.912;2022-09-09T05:11:01;14.30;99.90
13652;DHT22;6899;51.546;6.912;2022-09-09T05:13:28;14.20;99.90
13652;DHT22;6899;51.546;6.912;2022-09-09T05:15:57;14.30;99.90
13652;DHT22;6899;51.546;6.912;2022-09-09T05:18:26;14.30;99.90
13652;DHT22;6899;51.546;6.912;2022-09-09T05:20:58;14.30;99.90
13652;DHT22;6899;51.546;6.912;2022-09-09T05:23:25;14.30;99.90
13652;DHT22;6899;51.546;6.912;2022-09-09T05:25:56;14.30;99.90
13652;DHT22;6899;51.546;6.912;2022-09-09T05:28:24;14.30;99.90
13652;DHT22;6899;51.546;6.912;2022-09-09T05:30:58;14.30;99.90
13652;DHT22;6899;51.546;6.912;2022-09-09T05:33:27;14.40;99.90
13652;DHT22;6899;51.546;6.912;2022-09-09T05:35:58;14.40;99.90
13652;DHT22;6899;51.546;6.912;2022-09-09T05:38:25;14.50;99.90
13652;DHT22;6899;51.546;6.912;2022-09-09T05:40:52;14.50;99.90
13652;DHT22;6899;51.546;6.912;2022-09-09T05:43:19;14.50;99.90
13652;DHT22;6899;51.546;6.912;2022-09-09T05:45:46;14.60;99.90
13652;DHT22;6899;51.546;6.912;2022-09-09T05:48:14;14.50;99.90
13652;DHT22;6899;51.546;6.912;2022-09-09T05:50:43;14.50;99.90
13652;DHT22;6899;51.546;6.912;2022-09-09T05:53:10;14.50;99.90
13652;DHT22;6899;51.546;6.912;2022-09-09T05:55:37;14.40;99.90
13652;DHT22;6899;51.546;6.912;2022-09-09T05:58:04;14.40;99.90
13652;DHT22;6899;51.546;6.912;2022-09-09T06:00:31;14.40;99.90
13652;DHT22;6899;51.546;6.912;2022-09-09T06:02:58;14.40;99.90
13652;DHT22;6899;51.546;6.912;2022-09-09T06:05:25;14.50;99.90
13652;DHT22;6899;51.546;6.912;2022-09-09T06:07:55;14.50;99.90
13652;DHT22;6899;51.546;6.912;2022-09-09T06:10:22;14.50;99.90
13652;DHT22;6899;51.546;6.912;2022-09-09T06:12:52;14.60;99.90
13652;DHT22;6899;51.546;6.912;2022-09-09T06:15:19;14.70;99.90
13652;DHT22;6899;51.546;6.912;2022-09-09T06:17:46;14.80;99.90
13652;DHT22;6899;51.546;6.912;2022-09-09T06:20:15;15.00;99.90
13652;DHT22;6899;51.546;6.912;2022-09-09T06:22:41;15.10;99.90
13652;DHT22;6899;51.546;6.912;2022-09-09T06:25:10;15.20;99.90
13652;DHT22;6899;51.546;6.912;2022-09-09T06:27:37;15.30;99.90
13652;DHT22;6899;51.546;6.912;2022-09-09T06:30:05;15.40;99.90
13652;DHT22;6899;51.546;6.912;2022-09-09T06:32:33;15.50;99.90
13652;DHT22;6899;51.546;6.912;2022-09-09T06:35:03;15.60;99.90
13652;DHT22;6899;51.546;6.912;2022-09-09T06:37:30;15.70;99.90
13652;DHT22;6899;51.546;6.912;2022-09-09T06:39:57;15.80;99.90
13652;DHT22;6899;51.546;6.912;2022-09-09T06:42:25;15.80;99.90
13652;DHT22;6899;51.546;6.912;2022-09-09T06:44:52;15.80;99.90
13652;DHT22;6899;51.546;6.912;2022-09-09T06:47:20;15.80;99.90
13652;DHT22;6899;51.546;6.912;2022-09-09T06:49:47;15.90;99.90
13652;DHT22;6899;51.546;6.912;2022-09-09T06:52:14;16.20;99.90
13652;DHT22;6899;51.546;6.912;2022-09-09T06:54:41;16.50;99.90
13652;DHT22;6899;51.546;6.912;2022-09-09T06:57:08;17.30;99.90
13652;DHT22;6899;51.546;6.912;2022-09-09T06:59:36;17.90;99.90
13652;DHT22;6899;51.546;6.912;2022-09-09T07:02:03;18.30;99.90
13652;DHT22;6899;51.546;6.912;2022-09-09T07:04:31;18.60;99.90
13652;DHT22;6899;51.546;6.912;2022-09-09T07:06:58;19.00;99.90
13652;DHT22;6899;51.546;6.912;2022-09-09T07:09:25;19.20;99.90
13652;DHT22;6899;51.546;6.912;2022-09-09T07:11:53;19.50;99.90
13652;DHT22;6899;51.546;6.912;2022-09-09T07:14:20;19.30;99.90
13652;DHT22;6899;51.546;6.912;2022-09-09T07:16:48;19.00;99.90
13652;DHT22;6899;51.546;6.912;2022-09-09T07:19:15;19.20;99.90
13652;DHT22;6899;51.546;6.912;2022-09-09T07:21:43;19.20;99.90
13652;DHT22;6899;51.546;6.912;2022-09-09T07:24:10;19.60;99.90
13652;DHT22;6899;51.546;6.912;2022-09-09T07:26:38;19.70;99.90
13652;DHT22;6899;51.546;6.912;2022-09-09T07:29:06;20.00;99.90
13652;DHT22;6899;51.546;6.912;2022-09-09T07:31:34;20.30;99.90
13652;DHT22;6899;51.546;6.912;2022-09-09T07:34:04;20.70;99.90
13652;DHT22;6899;51.546;6.912;2022-09-09T07:36:33;20.60;99.90
13652;DHT22;6899;51.546;6.912;2022-09-09T07:39:01;20.40;99.90
13652;DHT22;6899;51.546;6.912;2022-09-09T07:41:32;20.10;99.90
13652;DHT22;6899;51.546;6.912;2022-09-09T07:44:03;19.60;99.90
13652;DHT22;6899;51.546;6.912;2022-09-09T07:46:30;19.50;99.90
13652;DHT22;6899;51.546;6.912;2022-09-09T07:48:57;19.50;99.90
13652;DHT22;6899;51.546;6.912;2022-09-09T07:51:26;19.50;99.90
13652;DHT22;6899;51.546;6.912;2022-09-09T07:53:55;19.70;99.90
13652;DHT22;6899;51.546;6.912;2022-09-09T07:56:24;19.50;99.90
13652;DHT22;6899;51.546;6.912;2022-09-09T07:58:53;19.50;99.90
13652;DHT22;6899;51.546;6.912;2022-09-09T08:01:22;20.00;99.90
13652;DHT22;6899;51.546;6.912;2022-09-09T08:03:54;20.50;99.90
13652;DHT22;6899;51.546;6.912;2022-09-09T08:06:21;20.80;99.90
13652;DHT22;6899;51.546;6.912;2022-09-09T08:08:51;20.70;99.90
13652;DHT22;6899;51.546;6.912;2022-09-09T08:11:22;20.80;99.90
13652;DHT22;6899;51.546;6.912;2022-09-09T08:13:50;20.80;99.90
13652;DHT22;6899;51.546;6.912;2022-09-09T08:16:19;21.00;99.90
13652;DHT22;6899;51.546;6.912;2022-09-09T08:18:47;20.90;99.90
13652;DHT22;6899;51.546;6.912;2022-09-09T08:21:18;21.00;99.90
13652;DHT22;6899;51.546;6.912;2022-09-09T08:23:46;20.90;99.90
13652;DHT22;6899;51.546;6.912;2022-09-09T08:26:17;21.00;99.90
13652;DHT22;6899;51.546;6.912;2022-09-09T08:28:45;21.20;99.90
13652;DHT22;6899;51.546;6.912;2022-09-09T08:31:13;21.40;99.90
13652;DHT22;6899;51.546;6.912;2022-09-09T08:33:41;21.40;99.90
13652;DHT22;6899;51.546;6.912;2022-09-09T08:36:12;21.50;99.90
13652;DHT22;6899;51.546;6.912;2022-09-09T08:38:41;22.00;99.90
13652;DHT22;6899;51.546;6.912;2022-09-09T08:41:23;22.10;99.90
13652;DHT22;6899;51.546;6.912;2022-09-09T08:44:02;21.50;99.90
13652;DHT22;6899;51.546;6.912;2022-09-09T08:46:34;21.40;99.90
13652;DHT22;6899;51.546;6.912;2022-09-09T08:49:10;21.30;99.90
13652;DHT22;6899;51.546;6.912;2022-09-09T08:51:43;21.20;99.90
13652;DHT22;6899;51.546;6.912;2022-09-09T08:54:09;20.90;99.90
13652;DHT22;6899;51.546;6.912;2022-09-09T08:56:38;20.70;99.90
13652;DHT22;6899;51.546;6.912;2022-09-09T08:59:05;21.20;99.90
13652;DHT22;6899;51.546;6.912;2022-09-09T09:01:45;21.30;99.90
13652;DHT22;6899;51.546;6.912;2022-09-09T09:04:29;21.40;99.90
13652;DHT22;6899;51.546;6.912;2022-09-09T09:07:09;21.30;99.90
13652;DHT22;6899;51.546;6.912;2022-09-09T09:09:46;22.00;99.90
13652;DHT22;6899;51.546;6.912;2022-09-09T09:12:20;22.00;99.90
13652;DHT22;6899;51.546;6.912;2022-09-09T09:14:48;22.40;99.90
13652;DHT22;6899;51.546;6.912;2022-09-09T09:17:17;22.40;99.70
13652;DHT22;6899;51.546;6.912;2022-09-09T09:19:46;22.50;97.70
13652;DHT22;6899;51.546;6.912;2022-09-09T09:22:17;23.00;99.30
13652;DHT22;6899;51.546;6.912;2022-09-09T09:24:51;23.30;91.20
13652;DHT22;6899;51.546;6.912;2022-09-09T09:27:26;23.00;96.50
13652;DHT22;6899;51.546;6.912;2022-09-09T09:29:55;22.80;94.30
13652;DHT22;6899;51.546;6.912;2022-09-09T09:32:24;22.30;97.20
13652;DHT22;6899;51.546;6.912;2022-09-09T09:34:55;22.50;99.90
13652;DHT22;6899;51.546;6.912;2022-09-09T09:37:26;22.40;95.00
13652;DHT22;6899;51.546;6.912;2022-09-09T09:39:54;21.90;99.90
13652;DHT22;6899;51.546;6.912;2022-09-09T09:42:23;21.30;99.90
13652;DHT22;6899;51.546;6.912;2022-09-09T09:44:51;21.20;99.90
13652;DHT22;6899;51.546;6.912;2022-09-09T09:47:19;21.10;99.90
13652;DHT22;6899;51.546;6.912;2022-09-09T09:49:54;21.20;99.90
13652;DHT22;6899;51.546;6.912;2022-09-09T09:52:23;21.40;99.90
13652;DHT22;6899;51.546;6.912;2022-09-09T09:54:51;21.60;99.90
13652;DHT22;6899;51.546;6.912;2022-09-09T09:57:24;21.60;99.90
13652;DHT22;6899;51.546;6.912;2022-09-09T10:00:02;21.80;99.90
13652;DHT22;6899;51.546;6.912;2022-09-09T10:02:38;21.70;99.70
13652;DHT22;6899;51.546;6.912;2022-09-09T10:05:12;21.50;99.90
13652;DHT22;6899;51.546;6.912;2022-09-09T10:07:40;21.30;99.90
13652;DHT22;6899;51.546;6.912;2022-09-09T10:10:10;21.10;99.90
13652;DHT22;6899;51.546;6.912;2022-09-09T10:12:47;21.00;99.90
13652;DHT22;6899;51.546;6.912;2022-09-09T10:15:35;21.00;99.90
13652;DHT22;6899;51.546;6.912;2022-09-09T10:18:35;21.30;99.90
13652;DHT22;6899;51.546;6.912;2022-09-09T10:21:11;21.80;99.90
13652;DHT22;6899;51.546;6.912;2022-09-09T10:23:59;22.10;99.90
13652;DHT22;6899;51.546;6.912;2022-09-09T10:26:39;22.30;99.90
13652;DHT22;6899;51.546;6.912;2022-09-09T10:29:32;22.70;94.50
13652;DHT22;6899;51.546;6.912;2022-09-09T10:32:15;23.00;93.80
13652;DHT22;6899;51.546;6.912;2022-09-09T10:34:56;22.60;92.00
13652;DHT22;6899;51.546;6.912;2022-09-09T10:37:33;22.60;95.80
13652;DHT22;6899;51.546;6.912;2022-09-09T10:40:15;22.40;94.20
13652;DHT22;6899;51.546;6.912;2022-09-09T10:42:46;22.20;92.70
13652;DHT22;6899;51.546;6.912;2022-09-09T10:45:18;21.80;95.50
13652;DHT22;6899;51.546;6.912;2022-09-09T10:48:07;21.70;95.70
13652;DHT22;6899;51.546;6.912;2022-09-09T10:50:45;21.30;94.20
13652;DHT22;6899;51.546;6.912;2022-09-09T10:53:19;21.00;97.60
13652;DHT22;6899;51.546;6.912;2022-09-09T10:55:53;20.80;99.90
13652;DHT22;6899;51.546;6.912;2022-09-09T10:58:27;20.50;99.90
13652;DHT22;6899;51.546;6.912;2022-09-09T11:01:02;20.30;99.90
13652;DHT22;6899;51.546;6.912;2022-09-09T11:03:35;20.10;99.90
13652;DHT22;6899;51.546;6.912;2022-09-09T11:06:06;20.10;99.90
13652;DHT22;6899;51.546;6.912;2022-09-09T11:08:37;19.90;99.90
13652;DHT22;6899;51.546;6.912;2022-09-09T11:11:10;20.00;99.90
13652;DHT22;6899;51.546;6.912;2022-09-09T11:13:43;20.10;99.90
13652;DHT22;6899;51.546;6.912;2022-09-09T11:16:21;20.30;99.90
13652;DHT22;6899;51.546;6.912;2022-09-09T11:18:49;20.40;99.90
13652;DHT22;6899;51.546;6.912;2022-09-09T11:21:19;20.60;99.90
13652;DHT22;6899;51.546;6.912;2022-09-09T11:23:51;20.70;99.90
13652;DHT22;6899;51.546;6.912;2022-09-09T11:26:28;20.80;99.90
13652;DHT22;6899;51.546;6.912;2022-09-09T11:29:06;21.00;99.90
13652;DHT22;6899;51.546;6.912;2022-09-09T11:31:45;21.00;99.10
13652;DHT22;6899;51.546;6.912;2022-09-09T11:34:36;21.00;99.90
13652;DHT22;6899;51.546;6.912;2022-09-09T11:37:28;21.20;99.90
13652;DHT22;6899;51.546;6.912;2022-09-09T11:40:20;21.30;99.80
13652;DHT22;6899;51.546;6.912;2022-09-09T11:42:49;21.40;99.90
13652;DHT22;6899;51.546;6.912;2022-09-09T11:45:28;21.40;99.90
13652;DHT22;6899;51.546;6.912;2022-09-09T11:47:58;21.40;99.90
13652;DHT22;6899;51.546;6.912;2022-09-09T11:50:31;21.10;99.90
13652;DHT22;6899;51.546;6.912;2022-09-09T11:53:20;21.20;99.90
13652;DHT22;6899;51.546;6.912;2022-09-09T11:55:59;21.10;99.90
13652;DHT22;6899;51.546;6.912;2022-09-09T11:58:27;21.40;99.90
13652;DHT22;6899;51.546;6.912;2022-09-09T12:00:58;22.00;99.40
13652;DHT22;6899;51.546;6.912;2022-09-09T12:03:36;22.40;98.40
13652;DHT22;6899;51.546;6.912;2022-09-09T12:06:15;22.90;93.00
13652;DHT22;6899;51.546;6.912;2022-09-09T12:08:46;23.00;91.30
13652;DHT22;6899;51.546;6.912;2022-09-09T12:11:24;23.00;94.80
13652;DHT22;6899;51.546;6.912;2022-09-09T12:13:53;22.50;92.70
13652;DHT22;6899;51.546;6.912;2022-09-09T12:16:32;22.20;94.50
13652;DHT22;6899;51.546;6.912;2022-09-09T12:19:14;21.80;97.00
13652;DHT22;6899;51.546;6.912;2022-09-09T12:21:48;21.80;99.90
13652;DHT22;6899;51.546;6.912;2022-09-09T12:24:23;22.20;99.50
13652;DHT22;6899;51.546;6.912;2022-09-09T12:26:56;22.30;98.80
13652;DHT22;6899;51.546;6.912;2022-09-09T12:29:28;22.00;96.60
13652;DHT22;6899;51.546;6.912;2022-09-09T12:32:02;21.30;97.80
13652;DHT22;6899;51.546;6.912;2022-09-09T12:34:38;20.80;99.90
13652;DHT22;6899;51.546;6.912;2022-09-09T12:37:13;20.40;99.90
13652;DHT22;6899;51.546;6.912;2022-09-09T12:39:44;20.30;99.90
13652;DHT22;6899;51.546;6.912;2022-09-09T12:42:19;20.50;99.90
13652;DHT22;6899;51.546;6.912;2022-09-09T12:44:55;20.50;99.90
13652;DHT22;6899;51.546;6.912;2022-09-09T12:47:27;20.70;99.90
13652;DHT22;6899;51.546;6.912;2022-09-09T12:49:57;21.10;99.90
13652;DHT22;6899;51.546;6.912;2022-09-09T12:52:28;21.00;99.90
13652;DHT22;6899;51.546;6.912;2022-09-09T12:54:58;20.50;99.90
13652;DHT22;6899;51.546;6.912;2022-09-09T12:57:28;19.10;99.90
13652;DHT22;6899;51.546;6.912;2022-09-09T13:00:06;18.60;99.90
13652;DHT22;6899;51.546;6.912;2022-09-09T13:02:35;18.30;99.90
13652;DHT22;6899;51.546;6.912;2022-09-09T13:05:16;18.00;99.90
13652;DHT22;6899;51.546;6.912;2022-09-09T13:07:43;18.00;99.90
13652;DHT22;6899;51.546;6.912;2022-09-09T13:10:12;17.90;99.90
13652;DHT22;6899;51.546;6.912;2022-09-09T13:12:39;17.80;99.90
13652;DHT22;6899;51.546;6.912;2022-09-09T13:15:15;17.60;99.90
13652;DHT22;6899;51.546;6.912;2022-09-09T13:17:50;17.50;99.90
13652;DHT22;6899;51.546;6.912;2022-09-09T13:20:21;17.50;99.90
13652;DHT22;6899;51.546;6.912;2022-09-09T13:22:49;17.50;99.90
13652;DHT22;6899;51.546;6.912;2022-09-09T13:25:21;17.30;99.90
13652;DHT22;6899;51.546;6.912;2022-09-09T13:28:01;17.00;99.90
13652;DHT22;6899;51.546;6.912;2022-09-09T13:30:30;16.70;99.90
13652;DHT22;6899;51.546;6.912;2022-09-09T13:33:06;16.70;99.90
13652;DHT22;6899;51.546;6.912;2022-09-09T13:35:35;16.90;99.90
13652;DHT22;6899;51.546;6.912;2022-09-09T13:38:08;17.10;99.90
13652;DHT22;6899;51.546;6.912;2022-09-09T13:40:36;17.60;99.90
13652;DHT22;6899;51.546;6.912;2022-09-09T13:43:04;17.90;99.90
13652;DHT22;6899;51.546;6.912;2022-09-09T13:45:31;18.40;99.90
13652;DHT22;6899;51.546;6.912;2022-09-09T13:48:09;18.80;99.90
13652;DHT22;6899;51.546;6.912;2022-09-09T13:50:37;19.00;99.90
13652;DHT22;6899;51.546;6.912;2022-09-09T13:53:04;19.00;99.90
13652;DHT22;6899;51.546;6.912;2022-09-09T13:55:31;19.10;99.90
13652;DHT22;6899;51.546;6.912;2022-09-09T13:58:00;19.10;99.90
13652;DHT22;6899;51.546;6.912;2022-09-09T14:00:29;19.30;99.90
13652;DHT22;6899;51.546;6.912;2022-09-09T14:02:57;19.30;99.90
13652;DHT22;6899;51.546;6.912;2022-09-09T14:05:25;19.50;99.90
13652;DHT22;6899;51.546;6.912;2022-09-09T14:07:54;19.80;99.90
13652;DHT22;6899;51.546;6.912;2022-09-09T14:10:21;20.20;99.90
13652;DHT22;6899;51.546;6.912;2022-09-09T14:12:48;20.70;99.90
13652;DHT22;6899;51.546;6.912;2022-09-09T14:15:15;20.60;99.90
13652;DHT22;6899;51.546;6.912;2022-09-09T14:17:42;20.40;99.90
13652;DHT22;6899;51.546;6.912;2022-09-09T14:20:10;20.20;99.90
13652;DHT22;6899;51.546;6.912;2022-09-09T14:22:41;20.20;99.90
13652;DHT22;6899;51.546;6.912;2022-09-09T14:25:11;20.00;99.90
13652;DHT22;6899;51.546;6.912;2022-09-09T14:27:39;19.90;99.90
13652;DHT22;6899;51.546;6.912;2022-09-09T14:30:07;19.90;99.90
13652;DHT22;6899;51.546;6.912;2022-09-09T14:32:34;19.80;99.90
13652;DHT22;6899;51.546;6.912;2022-09-09T14:35:02;19.80;99.90
13652;DHT22;6899;51.546;6.912;2022-09-09T14:37:29;19.60;99.90
13652;DHT22;6899;51.546;6.912;2022-09-09T14:39:56;19.80;99.90
13652;DHT22;6899;51.546;6.912;2022-09-09T14:42:25;19.70;99.90
13652;DHT22;6899;51.546;6.912;2022-09-09T14:44:52;19.90;99.90
13652;DHT22;6899;51.546;6.912;2022-09-09T14:47:19;19.80;99.90
13652;DHT22;6899;51.546;6.912;2022-09-09T14:49:47;19.60;99.90
13652;DHT22;6899;51.546;6.912;2022-09-09T14:52:15;19.10;99.90
13652;DHT22;6899;51.546;6.912;2022-09-09T14:54:42;18.50;99.90
13652;DHT22;6899;51.546;6.912;2022-09-09T14:57:09;18.00;99.90
13652;DHT22;6899;51.546;6.912;2022-09-09T14:59:37;17.60;99.90
13652;DHT22;6899;51.546;6.912;2022-09-09T15:02:04;17.20;99.90
13652;DHT22;6899;51.546;6.912;2022-09-09T15:04:31;16.70;99.90
13652;DHT22;6899;51.546;6.912;2022-09-09T15:06:58;16.10;99.90
13652;DHT22;6899;51.546;6.912;2022-09-09T15:09:25;15.70;99.90
13652;DHT22;6899;51.546;6.912;2022-09-09T15:11:52;15.60;99.90
13652;DHT22;6899;51.546;6.912;2022-09-09T15:14:19;15.40;99.90
13652;DHT22;6899;51.546;6.912;2022-09-09T15:16:47;15.20;99.90
13652;DHT22;6899;51.546;6.912;2022-09-09T15:19:14;15.20;99.90
13652;DHT22;6899;51.546;6.912;2022-09-09T15:21:41;15.10;99.90
13652;DHT22;6899;51.546;6.912;2022-09-09T15:24:08;15.10;99.90
13652;DHT22;6899;51.546;6.912;2022-09-09T15:26:37;15.20;99.90
13652;DHT22;6899;51.546;6.912;2022-09-09T15:29:05;15.30;99.90
13652;DHT22;6899;51.546;6.912;2022-09-09T15:31:33;15.40;99.90
13652;DHT22;6899;51.546;6.912;2022-09-09T15:34:03;15.50;99.90
13652;DHT22;6899;51.546;6.912;2022-09-09T15:36:31;15.60;99.90
13652;DHT22;6899;51.546;6.912;2022-09-09T15:39:02;15.60;99.90
13652;DHT22;6899;51.546;6.912;2022-09-09T15:41:30;15.60;99.90
13652;DHT22;6899;51.546;6.912;2022-09-09T15:43:57;15.70;99.90
13652;DHT22;6899;51.546;6.912;2022-09-09T15:46:30;15.70;99.90
13652;DHT22;6899;51.546;6.912;2022-09-09T15:48:58;15.70;99.90
13652;DHT22;6899;51.546;6.912;2022-09-09T15:51:30;15.90;99.90
13652;DHT22;6899;51.546;6.912;2022-09-09T15:53:58;16.00;99.90
13652;DHT22;6899;51.546;6.912;2022-09-09T15:56:26;16.30;99.90
13652;DHT22;6899;51.546;6.912;2022-09-09T15:58:55;16.60;99.90
13652;DHT22;6899;51.546;6.912;2022-09-09T16:01:24;16.90;99.90
13652;DHT22;6899;51.546;6.912;2022-09-09T16:03:51;17.30;99.90
13652;DHT22;6899;51.546;6.912;2022-09-09T16:06:20;17.50;99.90
13652;DHT22;6899;51.546;6.912;2022-09-09T16:08:50;17.70;99.90